Mescaleros — FIOG — position and weather

sailwx.info

Track history (hours):
 
Tides and Currents Weather Stations Pressure Air Temp Water Temp Dewpoint Dewpoint Depression Visibility Wind Speed Wind Dir Waves Ship Positions

Mescaleros

Last reported at 2018-Feb-24 03:15 UTC. Time now 2018-Feb-25 02:05 UTC.
Position N 48°15' W 004°47'.

Length 12 m.

Type: Fishing. MMSI: 228849000.

Date/timePositionNaut miles runAvg speedWind from/ knotsBaromVisibWave heightAir tempDewpointWater temp
2018-Feb-24 03:15N 48°15' W 004°47'2 7.3
2018-Feb-24 02:58N 48°17' W 004°47'4 7.6
2018-Feb-24 02:30N 48°21' W 004°47'1 0.1
2018-Feb-23 12:53N 48°22' W 004°47'2 3.0
2018-Feb-23 12:17N 48°20' W 004°47'8 0.9
2018-Feb-23 03:38N 48°12' W 004°48'1 7.1
2018-Feb-23 03:28N 48°13' W 004°48'4 7.4
2018-Feb-23 02:58N 48°17' W 004°47'4 7.2
2018-Feb-23 02:28N 48°21' W 004°47'0 0.0
2018-Feb-22 12:04N 48°20' W 004°47'0 5.5
2018-Feb-22 12:00N 48°20' W 004°47'3 7.0
2018-Feb-22 11:30N 48°16' W 004°47'4 7.4
2018-Feb-22 10:59N 48°13' W 004°47'1 0.2
2018-Feb-22 03:38N 48°14' W 004°46'1 7.3
2018-Feb-22 03:30N 48°15' W 004°46'3 6.9
2018-Feb-22 03:00N 48°18' W 004°47'3 5.0
2018-Feb-22 02:26N 48°21' W 004°47'6 0.3
2018-Feb-21 03:21N 48°15' W 004°47'3 7.2
2018-Feb-21 02:59N 48°18' W 004°47'3 5.6
2018-Feb-21 02:30N 48°21' W 004°47'6 0.3
2018-Feb-20 03:41N 48°15' W 004°48'2 7.5
2018-Feb-20 03:29N 48°17' W 004°47'3 6.6
2018-Feb-20 02:59N 48°20' W 004°47'11 0.6
2018-Feb-19 08:44N 48°09' W 004°45'1 3.6
2018-Feb-19 08:29N 48°08' W 004°45'1 2.5
2018-Feb-19 08:00N 48°07' W 004°46'0 0.1
2018-Feb-19 07:29N 48°07' W 004°46'1 1.2
2018-Feb-19 07:00N 48°07' W 004°46'1 1.1
2018-Feb-19 06:30N 48°08' W 004°46'1 1.0
2018-Feb-19 06:00N 48°08' W 004°47'0 0.9
2018-Feb-19 05:30N 48°09' W 004°47'0 0.6
2018-Feb-19 04:58N 48°09' W 004°47'0 0.9
2018-Feb-19 04:28N 48°09' W 004°46'1 1.6
2018-Feb-19 04:00N 48°10' W 004°45'3 6.8
2018-Feb-19 03:30N 48°13' W 004°45'4 7.3
2018-Feb-19 03:00N 48°16' W 004°47'3 6.3
2018-Feb-19 02:27N 48°20' W 004°47'2 3.7
2018-Feb-19 01:58N 48°22' W 004°47'  
2018-Feb-16 15:09N 48°18' W 004°46'1 8.1
2018-Feb-16 14:58N 48°17' W 004°46'3 0.3
2018-Feb-16 03:22N 48°14' W 004°47'3 6.6
2018-Feb-16 02:58N 48°16' W 004°48'3 6.1
2018-Feb-16 02:29N 48°19' W 004°47'2 3.7
2018-Feb-16 01:59N 48°21' W 004°47'6 0.5
2018-Feb-15 14:43N 48°16' W 004°48'5 7.6
2018-Feb-15 14:03N 48°11' W 004°49'1 7.7
2018-Feb-15 13:58N 48°10' W 004°50'2 2.7
2018-Feb-15 13:11N 48°08' W 004°51'1 1.7
2018-Feb-15 12:38N 48°09' W 004°50'0 1.2
2018-Feb-15 12:23N 48°08' W 004°50'1 1.8
2018-Feb-15 11:50N 48°08' W 004°51'0 1.1
2018-Feb-15 11:22N 48°08' W 004°50'1 1.5
2018-Feb-15 10:53N 48°08' W 004°50'7 0.9
2018-Feb-15 03:10N 48°15' W 004°48'1 6.4
2018-Feb-15 02:58N 48°17' W 004°48'3 5.7
2018-Feb-15 02:23N 48°20' W 004°47'2 4.1
2018-Feb-15 02:00N 48°21' W 004°47'  
Track history (hours):
 
Tides and Currents Weather Stations Pressure Air Temp Water Temp Dewpoint Dewpoint Depression Visibility Wind Speed Wind Dir Waves Ship Positions

Mescaleros

Last reported at 2018-Feb-24 03:15 UTC. Time now 2018-Feb-25 02:06 UTC.
Position N 48°15' W 004°47'.

Length 12 m.

Type: Fishing. MMSI: 228849000.

Date/timePositionNaut miles runAvg speedWind from/ knotsBaromVisibWave heightAir tempDewpointWater temp
2018-Feb-24 03:15N 48°15' W 004°47'2 7.3
2018-Feb-24 02:58N 48°17' W 004°47'4 7.6
2018-Feb-24 02:30N 48°21' W 004°47'1 0.1
2018-Feb-23 12:53N 48°22' W 004°47'2 3.0
2018-Feb-23 12:17N 48°20' W 004°47'8 0.9
2018-Feb-23 03:38N 48°12' W 004°48'1 7.1
2018-Feb-23 03:28N 48°13' W 004°48'4 7.4
2018-Feb-23 02:58N 48°17' W 004°47'4 7.2
2018-Feb-23 02:28N 48°21' W 004°47'0 0.0
2018-Feb-22 12:04N 48°20' W 004°47'0 5.5
2018-Feb-22 12:00N 48°20' W 004°47'3 7.0
2018-Feb-22 11:30N 48°16' W 004°47'4 7.4
2018-Feb-22 10:59N 48°13' W 004°47'1 0.2
2018-Feb-22 03:38N 48°14' W 004°46'1 7.3
2018-Feb-22 03:30N 48°15' W 004°46'3 6.9
2018-Feb-22 03:00N 48°18' W 004°47'3 5.0
2018-Feb-22 02:26N 48°21' W 004°47'6 0.3
2018-Feb-21 03:21N 48°15' W 004°47'3 7.2
2018-Feb-21 02:59N 48°18' W 004°47'3 5.6
2018-Feb-21 02:30N 48°21' W 004°47'6 0.3
2018-Feb-20 03:41N 48°15' W 004°48'2 7.5
2018-Feb-20 03:29N 48°17' W 004°47'3 6.6
2018-Feb-20 02:59N 48°20' W 004°47'11 0.6
2018-Feb-19 08:44N 48°09' W 004°45'1 3.6
2018-Feb-19 08:29N 48°08' W 004°45'1 2.5
2018-Feb-19 08:00N 48°07' W 004°46'0 0.1
2018-Feb-19 07:29N 48°07' W 004°46'1 1.2
2018-Feb-19 07:00N 48°07' W 004°46'1 1.1
2018-Feb-19 06:30N 48°08' W 004°46'1 1.0
2018-Feb-19 06:00N 48°08' W 004°47'0 0.9
2018-Feb-19 05:30N 48°09' W 004°47'0 0.6
2018-Feb-19 04:58N 48°09' W 004°47'0 0.9
2018-Feb-19 04:28N 48°09' W 004°46'1 1.6
2018-Feb-19 04:00N 48°10' W 004°45'3 6.8
2018-Feb-19 03:30N 48°13' W 004°45'4 7.3
2018-Feb-19 03:00N 48°16' W 004°47'3 6.3
2018-Feb-19 02:27N 48°20' W 004°47'2 3.7
2018-Feb-19 01:58N 48°22' W 004°47'  
2018-Feb-16 15:09N 48°18' W 004°46'1 8.1
2018-Feb-16 14:58N 48°17' W 004°46'3 0.3
2018-Feb-16 03:22N 48°14' W 004°47'3 6.6
2018-Feb-16 02:58N 48°16' W 004°48'3 6.1
2018-Feb-16 02:29N 48°19' W 004°47'2 3.7
2018-Feb-16 01:59N 48°21' W 004°47'6 0.5
2018-Feb-15 14:43N 48°16' W 004°48'5 7.6
2018-Feb-15 14:03N 48°11' W 004°49'1 7.7
2018-Feb-15 13:58N 48°10' W 004°50'2 2.7
2018-Feb-15 13:11N 48°08' W 004°51'1 1.7
2018-Feb-15 12:38N 48°09' W 004°50'0 1.2
2018-Feb-15 12:23N 48°08' W 004°50'1 1.8
2018-Feb-15 11:50N 48°08' W 004°51'0 1.1
2018-Feb-15 11:22N 48°08' W 004°50'1 1.5
2018-Feb-15 10:53N 48°08' W 004°50'7 0.9
2018-Feb-15 03:10N 48°15' W 004°48'1 6.4
2018-Feb-15 02:58N 48°17' W 004°48'3 5.7
2018-Feb-15 02:23N 48°20' W 004°47'2 4.1
2018-Feb-15 02:00N 48°21' W 004°47'  

Dump ship's entire track history